Time;durP1;ratioP1;P1;durP2;ratioP2;P2;SDS_P1;SDS_P2;PMS_P1;PMS_P2;Temp;Humidity;BMP_temperature;BMP_pressure;BME280_temperature;BME280_humidity;BME280_pressure;Samples;Min_cycle;Max_cycle;Signal;HPM_P1;HPM_P2
2024/02/04 00:00:05;;;;;;;32.63;8.27;;;;;;;8.39;100.00;102525.31;5049475;28;20493;-79
2024/02/04 00:02:30;;;;;;;28.92;8.63;;;;;;;8.43;100.00;102526.88;5049499;28;20532;-79
2024/02/04 00:04:56;;;;;;;24.55;8.18;;;;;;;8.44;100.00;102513.56;5049599;28;20029;-79
2024/02/04 00:07:21;;;;;;;34.40;8.70;;;;;;;8.45;100.00;102515.28;5049176;28;20037;-81
2024/02/04 00:09:46;;;;;;;37.55;9.38;;;;;;;8.46;100.00;102511.69;5049707;28;20053;-79
2024/02/04 00:12:12;;;;;;;30.27;9.35;;;;;;;8.49;100.00;102504.50;5049439;28;20037;-78
2024/02/04 00:14:37;;;;;;;21.25;8.90;;;;;;;8.51;100.00;102499.97;5049408;28;20099;-79
2024/02/04 00:17:03;;;;;;;33.20;9.38;;;;;;;8.50;100.00;102508.88;5049963;28;20077;-79
2024/02/04 00:19:29;;;;;;;33.17;9.20;;;;;;;8.47;100.00;102505.44;5052826;28;20490;-78
2024/02/04 00:21:54;;;;;;;31.73;9.10;;;;;;;8.50;100.00;102517.69;5053204;28;20162;-78
2024/02/04 00:24:20;;;;;;;26.42;8.18;;;;;;;8.49;100.00;102504.50;5052799;28;20044;-79
2024/02/04 00:26:45;;;;;;;27.95;9.13;;;;;;;8.52;100.00;102502.53;5052746;28;20374;-79
2024/02/04 00:29:11;;;;;;;30.58;9.00;;;;;;;8.53;100.00;102498.94;5052805;28;20429;-79
2024/02/04 00:31:36;;;;;;;28.52;8.88;;;;;;;8.58;100.00;102506.63;5052561;28;20099;-77
2024/02/04 00:34:01;;;;;;;26.38;8.15;;;;;;;8.63;100.00;102499.31;5052721;28;20041;-78
2024/02/04 00:36:27;;;;;;;27.08;8.35;;;;;;;8.64;100.00;102503.63;5052433;28;20371;-78
2024/02/04 00:38:52;;;;;;;33.00;8.88;;;;;;;8.62;100.00;102498.44;5052435;28;20099;-78
2024/02/04 00:41:17;;;;;;;34.13;9.07;;;;;;;8.57;100.00;102510.22;5052136;28;20033;-78
2024/02/04 00:43:43;;;;;;;24.52;9.45;;;;;;;8.47;100.00;102493.97;5052420;28;20378;-78
2024/02/04 00:46:10;;;;;;;32.80;9.20;;;;;;;8.45;100.00;102486.09;5052236;28;20033;-78
2024/02/04 00:48:36;;;;;;;31.20;9.05;;;;;;;8.43;100.00;102471.19;5052135;28;20043;-79
2024/02/04 00:51:01;;;;;;;32.20;9.35;;;;;;;8.42;100.00;102472.09;5052401;28;20037;-78
2024/02/04 00:53:33;;;;;;;25.55;8.70;;;;;;;8.37;100.00;102467.06;5051813;28;20470;-77
2024/02/04 00:55:58;;;;;;;35.65;9.82;;;;;;;8.32;100.00;102461.16;5052277;28;20203;-78
2024/02/04 00:58:24;;;;;;;39.75;9.13;;;;;;;8.31;100.00;102456.78;5051622;28;20175;-79
2024/02/04 01:00:49;;;;;;;31.58;8.93;;;;;;;8.27;100.00;102456.13;5052632;28;20545;-78
2024/02/04 01:03:14;;;;;;;33.95;9.05;;;;;;;8.26;100.00;102458.84;5052246;28;20458;-78
2024/02/04 01:05:40;;;;;;;28.70;9.90;;;;;;;8.30;100.00;102482.47;5051853;28;20041;-78
2024/02/04 01:08:05;;;;;;;29.13;8.68;;;;;;;8.31;100.00;102475.34;5050775;28;20033;-78
2024/02/04 01:10:31;;;;;;;31.67;8.98;;;;;;;8.32;100.00;102468.28;5051622;28;20152;-78
2024/02/04 01:12:56;;;;;;;36.20;9.43;;;;;;;8.28;100.00;102481.72;5051865;28;20048;-79
2024/02/04 01:15:21;;;;;;;28.13;8.30;;;;;;;8.27;100.00;102487.06;5051523;28;20041;-78
2024/02/04 01:17:47;;;;;;;36.50;9.40;;;;;;;8.22;100.00;102481.19;5052165;28;20107;-79
2024/02/04 01:20:12;;;;;;;35.50;9.55;;;;;;;8.18;100.00;102492.88;5051888;28;20092;-79
2024/02/04 01:22:37;;;;;;;36.45;9.35;;;;;;;8.12;100.00;102486.09;5051554;28;20052;-78
2024/02/04 01:25:03;;;;;;;35.08;8.88;;;;;;;8.09;100.00;102496.88;5051708;28;20043;-79
2024/02/04 01:27:28;;;;;;;35.50;9.88;;;;;;;8.07;100.00;102494.31;5051336;28;20029;-78
2024/02/04 01:29:54;;;;;;;44.20;10.30;;;;;;;8.02;100.00;102490.22;5051774;28;20387;-78
2024/02/04 01:32:19;;;;;;;29.38;8.70;;;;;;;8.00;100.00;102497.38;5051554;28;20553;-79
2024/02/04 01:34:44;;;;;;;36.50;9.82;;;;;;;7.95;100.00;102497.63;5051261;28;20032;-79
2024/02/04 01:37:10;;;;;;;39.08;8.77;;;;;;;7.89;100.00;102498.78;5051695;28;20040;-79
2024/02/04 01:39:35;;;;;;;32.65;8.30;;;;;;;7.86;100.00;102493.66;5051237;28;20033;-79
2024/02/04 01:42:01;;;;;;;25.02;8.80;;;;;;;7.85;100.00;102501.69;5051413;28;20029;-79
2024/02/04 01:44:27;;;;;;;34.55;9.57;;;;;;;7.85;100.00;102491.09;5049523;28;20047;-78
2024/02/04 01:46:53;;;;;;;33.03;8.77;;;;;;;7.85;100.00;102488.44;5051388;28;20456;-79
2024/02/04 01:49:18;;;;;;;33.25;9.02;;;;;;;7.84;100.00;102492.91;5051390;28;20029;-78
2024/02/04 01:51:44;;;;;;;28.70;9.00;;;;;;;7.86;100.00;102493.66;5050750;28;20039;-79
2024/02/04 01:54:09;;;;;;;33.58;9.07;;;;;;;7.88;100.00;102494.47;5051266;28;20037;-79
2024/02/04 01:56:36;;;;;;;26.42;8.48;;;;;;;7.90;100.00;102500.53;5050795;28;20406;-78
2024/02/04 01:59:02;;;;;;;28.33;7.80;;;;;;;7.92;100.00;102497.78;5051257;28;20124;-78
2024/02/04 02:01:27;;;;;;;21.70;6.88;;;;;;;7.93;100.00;102504.81;5051008;28;20145;-79
2024/02/04 02:03:53;;;;;;;30.55;8.30;;;;;;;7.93;100.00;102503.00;5051144;28;20036;-78
2024/02/04 02:06:18;;;;;;;29.15;7.68;;;;;;;7.95;100.00;102508.22;5051332;28;20033;-79
2024/02/04 02:08:44;;;;;;;24.70;7.50;;;;;;;7.96;100.00;102502.00;5050646;28;20439;-79
2024/02/04 02:11:30;;;;;;;27.23;7.53;;;;;;;7.95;100.00;102509.06;5050686;28;20495;-78
2024/02/04 02:14:02;;;;;;;25.20;6.30;;;;;;;7.95;100.00;102506.41;5051117;28;20108;-79
2024/02/04 02:16:32;;;;;;;31.23;7.07;;;;;;;7.94;100.00;102499.44;5050938;28;20064;-79
2024/02/04 02:19:25;;;;;;;17.05;5.38;;;;;;;7.93;100.00;102502.16;5050547;28;20029;-79
2024/02/04 02:22:06;;;;;;;33.88;6.55;;;;;;;7.95;100.00;102494.97;5050258;28;20497;-78
2024/02/04 02:24:39;;;;;;;22.13;7.85;;;;;;;7.96;100.00;102494.03;5050011;28;20115;-79
2024/02/04 02:27:06;;;;;;;29.00;7.03;;;;;;;7.97;100.00;102492.25;5050602;28;20037;-79
2024/02/04 02:29:32;;;;;;;24.95;6.95;;;;;;;7.98;100.00;102488.66;5050368;28;20063;-79
2024/02/04 02:31:59;;;;;;;24.48;7.80;;;;;;;7.97;100.00;102485.13;5050353;28;20025;-79
2024/02/04 02:34:25;;;;;;;26.48;7.25;;;;;;;7.95;100.00;102485.22;5050316;28;20033;-79
2024/02/04 02:36:59;;;;;;;35.30;8.02;;;;;;;7.96;100.00;102464.88;5049788;28;20437;-78
2024/02/04 02:39:32;;;;;;;31.15;6.90;;;;;;;7.94;100.00;102475.56;5049087;28;20466;-78
2024/02/04 02:42:01;;;;;;;22.48;6.47;;;;;;;7.94;100.00;102477.34;5049811;28;20040;-79
2024/02/04 02:44:28;;;;;;;25.65;6.97;;;;;;;7.96;100.00;102472.84;5050024;28;20051;-78
2024/02/04 02:46:55;;;;;;;22.00;6.75;;;;;;;7.95;100.00;102484.38;5049967;28;20063;-78
2024/02/04 02:49:21;;;;;;;27.83;7.50;;;;;;;7.95;100.00;102493.16;5050250;28;20030;-79
2024/02/04 02:51:46;;;;;;;24.98;7.40;;;;;;;7.97;100.00;102481.63;5049893;28;20082;-79
2024/02/04 02:54:11;;;;;;;21.40;7.13;;;;;;;7.98;100.00;102486.84;5050076;28;20037;-79
2024/02/04 02:56:37;;;;;;;33.15;7.90;;;;;;;7.96;100.00;102494.03;5049358;28;20055;-78
2024/02/04 02:59:03;;;;;;;25.02;6.85;;;;;;;7.97;100.00;102473.69;5049795;28;20037;-78
2024/02/04 03:01:30;;;;;;;19.33;6.55;;;;;;;7.95;100.00;102468.47;5049713;28;20455;-79
2024/02/04 03:03:55;;;;;;;21.00;6.05;;;;;;;7.92;100.00;102471.28;5049394;28;20037;-79
2024/02/04 03:06:20;;;;;;;24.38;6.60;;;;;;;7.91;100.00;102456.31;5050034;28;20090;-80
2024/02/04 03:08:46;;;;;;;27.77;7.28;;;;;;;7.91;100.00;102461.59;5049218;28;20029;-79
2024/02/04 03:11:11;;;;;;;34.42;7.05;;;;;;;7.89;100.00;102467.00;5049700;28;20195;-79
2024/02/04 03:13:39;;;;;;;29.27;7.30;;;;;;;7.89;100.00;102468.78;5048351;28;20116;-79
2024/02/04 03:16:12;;;;;;;32.95;7.10;;;;;;;7.86;100.00;102480.41;5049877;28;20076;-79
2024/02/04 03:18:42;;;;;;;20.92;6.65;;;;;;;7.86;100.00;102474.25;5049641;28;20270;-79
2024/02/04 03:21:15;;;;;;;20.85;6.55;;;;;;;7.81;100.00;102461.25;5049810;28;20040;-79
2024/02/04 03:23:43;;;;;;;26.95;7.45;;;;;;;7.79;100.00;102443.72;5049503;28;20032;-79
2024/02/04 03:26:20;;;;;;;21.08;7.10;;;;;;;7.77;100.00;102452.59;5049959;28;20127;-79
2024/02/04 03:28:45;;;;;;;29.88;7.50;;;;;;;7.79;100.00;102464.91;5049507;28;20142;-78
2024/02/04 03:31:10;;;;;;;25.15;7.95;;;;;;;7.76;100.00;102469.47;5048541;28;20119;-79
2024/02/04 03:33:36;;;;;;;26.77;7.07;;;;;;;7.77;100.00;102488.84;5049807;28;20065;-79
2024/02/04 03:36:01;;;;;;;19.88;6.57;;;;;;;7.75;100.00;102473.03;5049178;28;20029;-78
2024/02/04 03:38:26;;;;;;;30.63;7.75;;;;;;;7.74;100.00;102476.59;5049830;28;20032;-78
2024/02/04 03:40:52;;;;;;;25.30;7.20;;;;;;;7.73;100.00;102474.03;5049164;28;20147;-79
2024/02/04 03:43:17;;;;;;;35.08;7.88;;;;;;;7.71;100.00;102479.44;5049734;28;20025;-78
2024/02/04 03:45:42;;;;;;;26.85;8.20;;;;;;;7.72;100.00;102481.16;5049294;28;20045;-79
2024/02/04 03:48:08;;;;;;;30.48;7.88;;;;;;;7.74;100.00;102478.41;5049606;28;20099;-79
2024/02/04 03:50:33;;;;;;;21.27;8.00;;;;;;;7.77;100.00;102481.75;5049788;28;20376;-80
2024/02/04 03:52:58;;;;;;;22.35;8.27;;;;;;;7.74;100.00;102484.56;5051151;28;20040;-80
2024/02/04 03:55:25;;;;;;;32.28;8.13;;;;;;;7.74;100.00;102481.06;5051815;28;20036;-79
2024/02/04 03:57:50;;;;;;;31.02;7.93;;;;;;;7.72;100.00;102469.69;5053125;28;20095;-79
2024/02/04 04:00:16;;;;;;;24.23;7.47;;;;;;;7.70;100.00;102466.25;5053330;28;20132;-79
2024/02/04 04:02:41;;;;;;;26.55;8.48;;;;;;;7.70;100.00;102464.47;5053432;28;20043;-80
2024/02/04 04:05:11;;;;;;;30.90;7.60;;;;;;;7.72;100.00;102459.09;5052811;28;20116;-78
2024/02/04 04:07:38;;;;;;;28.35;8.43;;;;;;;7.71;100.00;102455.56;5052873;28;20057;-80
2024/02/04 04:10:04;;;;;;;36.05;8.25;;;;;;;7.72;100.00;102444.06;5050889;28;20737;-78
2024/02/04 04:12:29;;;;;;;26.27;6.68;;;;;;;7.71;100.00;102436.19;5051741;28;20033;-78
2024/02/04 04:14:55;;;;;;;30.55;7.00;;;;;;;7.73;100.00;102442.25;5052456;28;20079;-78
2024/02/04 04:17:20;;;;;;;21.80;7.13;;;;;;;7.72;100.00;102436.09;5052841;28;20543;-79
2024/02/04 04:19:45;;;;;;;23.48;7.45;;;;;;;7.68;100.00;102437.19;5052363;28;20466;-79
2024/02/04 04:22:11;;;;;;;32.50;8.85;;;;;;;7.66;100.00;102430.25;5052958;28;20025;-79
2024/02/04 04:24:38;;;;;;;24.80;7.78;;;;;;;7.64;100.00;102421.53;5052725;28;20044;-79
2024/02/04 04:27:03;;;;;;;20.38;7.10;;;;;;;7.65;100.00;102429.41;5052086;28;20092;-78
2024/02/04 04:29:28;;;;;;;27.23;7.68;;;;;;;7.65;100.00;102439.16;5052648;28;20057;-78
2024/02/04 04:31:54;;;;;;;23.85;7.55;;;;;;;7.64;100.00;102429.50;5052492;28;20127;-78
2024/02/04 04:34:19;;;;;;;30.30;7.47;;;;;;;7.66;100.00;102433.78;5052349;28;20088;-78
2024/02/04 04:36:45;;;;;;;23.13;7.75;;;;;;;7.66;100.00;102427.59;5052653;28;20044;-79
2024/02/04 04:39:11;;;;;;;31.48;7.53;;;;;;;7.66;100.00;102422.31;5051872;28;20108;-78
2024/02/04 04:41:36;;;;;;;39.00;9.10;;;;;;;7.64;100.00;102424.19;5050773;28;20048;-77
2024/02/04 04:44:01;;;;;;;28.73;9.82;;;;;;;7.67;100.00;102430.16;5052191;28;20056;-77
2024/02/04 04:46:27;;;;;;;29.35;9.88;;;;;;;7.67;100.00;102429.31;5052133;28;20427;-77
2024/02/04 04:48:52;;;;;;;37.53;10.23;;;;;;;7.65;100.00;102432.06;5052059;28;20103;-80
2024/02/04 04:51:17;;;;;;;52.95;11.68;;;;;;;7.62;100.00;102421.63;5052249;28;20475;-79
2024/02/04 04:53:43;;;;;;;40.78;11.85;;;;;;;7.63;100.00;102414.53;5050587;28;20476;-79
2024/02/04 04:56:08;;;;;;;43.10;11.90;;;;;;;7.64;100.00;102411.78;5050367;28;20373;-80
2024/02/04 04:58:35;;;;;;;36.55;12.43;;;;;;;7.67;100.00;102408.13;5052033;28;20133;-79
2024/02/04 05:01:00;;;;;;;36.70;12.57;;;;;;;7.68;100.00;102391.31;5051589;28;20087;-77
2024/02/04 05:03:26;;;;;;;41.55;11.50;;;;;;;7.67;100.00;102416.94;5051961;28;20057;-79
2024/02/04 05:05:51;;;;;;;31.85;10.50;;;;;;;7.65;100.00;102416.16;5050340;28;20083;-79
2024/02/04 05:08:16;;;;;;;32.60;10.35;;;;;;;7.66;100.00;102411.72;5051969;28;20090;-80
2024/02/04 05:10:42;;;;;;;39.08;11.25;;;;;;;7.68;100.00;102415.16;5051956;28;20091;-79
2024/02/04 05:13:07;;;;;;;42.08;11.75;;;;;;;7.71;100.00;102418.47;5051268;28;20033;-79
2024/02/04 05:15:34;;;;;;;34.45;12.10;;;;;;;7.70;100.00;102406.19;5051859;28;20116;-78
2024/02/04 05:18:00;;;;;;;30.42;11.77;;;;;;;7.71;100.00;102397.28;5051425;28;20037;-78
2024/02/04 05:20:25;;;;;;;32.05;10.82;;;;;;;7.70;100.00;102392.06;5051389;28;20047;-78
2024/02/04 05:22:50;;;;;;;39.25;10.77;;;;;;;7.69;100.00;102385.09;5051990;28;20033;-79
2024/02/04 05:25:16;;;;;;;27.98;10.98;;;;;;;7.70;100.00;102389.41;5050996;28;20104;-78
2024/02/04 05:27:41;;;;;;;27.10;10.25;;;;;;;7.69;100.00;102393.88;5051336;28;20099;-79
2024/02/04 05:30:07;;;;;;;39.15;11.57;;;;;;;7.70;100.00;102381.47;5051174;28;20474;-78
2024/02/04 05:32:32;;;;;;;39.97;10.93;;;;;;;7.67;100.00;102395.72;5051476;28;20033;-79
2024/02/04 05:34:58;;;;;;;31.35;9.75;;;;;;;7.68;100.00;102418.66;5051082;28;20123;-79
2024/02/04 05:37:23;;;;;;;29.92;9.00;;;;;;;7.68;100.00;102392.16;5051373;28;20108;-79
2024/02/04 05:39:48;;;;;;;37.45;9.95;;;;;;;7.68;100.00;102394.81;5051310;28;20044;-78
2024/02/04 05:42:14;;;;;;;38.10;9.20;;;;;;;7.66;100.00;102379.91;5049858;28;20064;-79
2024/02/04 05:44:39;;;;;;;33.88;8.32;;;;;;;7.66;100.00;102374.63;5033268;28;20466;-78
2024/02/04 05:47:04;;;;;;;33.63;8.63;;;;;;;7.62;100.00;102376.59;5050854;28;20067;-78
2024/02/04 05:49:30;;;;;;;32.28;8.57;;;;;;;7.61;100.00;102366.91;5051277;28;20033;-78
2024/02/04 05:51:55;;;;;;;30.27;8.25;;;;;;;7.59;100.00;102371.47;5051022;28;20351;-78
2024/02/04 05:54:21;;;;;;;32.13;8.13;;;;;;;7.60;100.00;102389.06;5050658;28;20115;-78
2024/02/04 05:56:46;;;;;;;24.55;7.07;;;;;;;7.59;100.00;102372.31;5051195;28;20064;-78
2024/02/04 05:59:11;;;;;;;29.63;6.47;;;;;;;7.59;100.00;102382.91;5050563;28;20059;-79
2024/02/04 06:01:37;;;;;;;29.77;6.63;;;;;;;7.58;100.00;102372.38;5051237;28;20111;-78
2024/02/04 06:04:02;;;;;;;27.92;6.10;;;;;;;7.62;100.00;102378.41;5049231;28;20139;-79
2024/02/04 06:06:28;;;;;;;23.23;5.68;;;;;;;7.62;100.00;102366.00;5050980;28;20373;-78
2024/02/04 06:08:53;;;;;;;21.88;6.93;;;;;;;7.65;100.00;102363.19;5050748;28;20127;-79
2024/02/04 06:11:18;;;;;;;31.15;6.53;;;;;;;7.66;100.00;102359.59;5050188;28;20077;-79
2024/02/04 06:13:44;;;;;;;20.08;5.63;;;;;;;7.70;100.00;102366.44;5051070;28;20036;-77
2024/02/04 06:16:11;;;;;;;24.25;6.28;;;;;;;7.75;100.00;102360.91;5049805;28;20031;-78
2024/02/04 06:18:37;;;;;;;22.70;6.35;;;;;;;7.79;100.00;102365.06;5050756;28;20122;-78
2024/02/04 06:21:04;;;;;;;23.17;6.63;;;;;;;7.82;100.00;102367.56;5050392;28;20037;-78
2024/02/04 06:23:29;;;;;;;23.40;7.28;;;;;;;7.87;100.00;102362.88;5050460;28;20048;-76
2024/02/04 06:25:54;;;;;;;15.90;6.10;;;;;;;7.89;100.00;102360.97;5050458;28;20170;-76
2024/02/04 06:28:20;;;;;;;16.65;6.25;;;;;;;7.94;100.00;102355.44;5049074;28;20120;-76
2024/02/04 06:30:45;;;;;;;17.92;6.60;;;;;;;7.99;100.00;102364.00;5050494;28;20028;-77
2024/02/04 06:33:10;;;;;;;18.38;6.32;;;;;;;8.05;100.00;102354.84;5050154;28;20108;-78
2024/02/04 06:35:36;;;;;;;18.50;6.75;;;;;;;8.09;100.00;102359.00;5050439;28;20090;-77
2024/02/04 06:38:01;;;;;;;19.75;6.43;;;;;;;8.10;100.00;102360.75;5050011;28;20033;-77
2024/02/04 06:40:26;;;;;;;16.13;6.70;;;;;;;8.14;100.00;102353.50;5049951;28;20029;-78
2024/02/04 06:42:52;;;;;;;19.88;5.90;;;;;;;8.17;100.00;102366.56;5050639;28;20481;-77
2024/02/04 06:45:17;;;;;;;15.63;6.45;;;;;;;8.15;100.00;102365.78;5049647;28;20114;-77
2024/02/04 06:47:45;;;;;;;23.30;6.50;;;;;;;8.12;100.00;102359.72;5050305;28;20037;-78
2024/02/04 06:50:14;;;;;;;17.00;5.47;;;;;;;8.14;100.00;102356.13;5049840;28;20577;-78
2024/02/04 06:52:40;;;;;;;21.30;5.30;;;;;;;8.13;100.00;102355.25;5050173;28;20035;-78
2024/02/04 06:55:06;;;;;;;20.58;5.00;;;;;;;8.12;100.00;102359.72;5050293;28;20120;-78
2024/02/04 06:57:31;;;;;;;19.38;5.55;;;;;;;8.09;100.00;102353.72;5050345;28;20110;-77
2024/02/04 06:59:57;;;;;;;22.20;6.10;;;;;;;8.06;100.00;102357.41;5050343;28;20416;-77
2024/02/04 07:02:22;;;;;;;24.20;5.72;;;;;;;8.05;100.00;102350.41;5048411;28;20491;-77
2024/02/04 07:04:47;;;;;;;22.30;5.78;;;;;;;8.02;100.00;102334.66;5050051;28;20435;-77
2024/02/04 07:07:13;;;;;;;23.77;5.65;;;;;;;8.00;100.00;102335.69;5049635;28;20375;-78
2024/02/04 07:09:38;;;;;;;13.90;4.97;;;;;;;7.97;100.00;102343.81;5049786;28;20134;-77
2024/02/04 07:12:04;;;;;;;17.20;5.03;;;;;;;7.94;100.00;102332.44;5050469;28;20041;-77
2024/02/04 07:14:29;;;;;;;13.13;4.35;;;;;;;7.92;100.00;102333.47;5049644;28;20037;-77
2024/02/04 07:16:55;;;;;;;20.15;5.28;;;;;;;7.86;100.00;102339.94;5049933;28;20425;-78
2024/02/04 07:19:20;;;;;;;25.42;6.78;;;;;;;7.83;100.00;102336.63;5047984;28;20493;-78
2024/02/04 07:21:45;;;;;;;26.35;6.20;;;;;;;7.76;100.00;102336.09;5049793;28;20343;-78
2024/02/04 07:24:11;;;;;;;24.45;7.05;;;;;;;7.76;100.00;102329.03;5049019;28;20044;-78
2024/02/04 07:26:36;;;;;;;26.65;6.20;;;;;;;7.80;100.00;102332.34;5051170;28;20033;-78
2024/02/04 07:29:01;;;;;;;23.35;6.50;;;;;;;7.86;100.00;102339.09;5053633;28;20060;-77
2024/02/04 07:31:27;;;;;;;22.10;5.72;;;;;;;7.92;100.00;102357.31;5053607;28;20037;-78
2024/02/04 07:33:52;;;;;;;13.05;4.45;;;;;;;7.96;100.00;102340.31;5052398;28;20033;-78
2024/02/04 07:36:18;;;;;;;19.10;4.90;;;;;;;8.01;100.00;102340.91;5053398;28;20118;-79
2024/02/04 07:38:43;;;;;;;20.02;4.90;;;;;;;8.02;100.00;102339.97;5053716;28;20120;-79
2024/02/04 07:41:08;;;;;;;19.45;4.70;;;;;;;8.06;100.00;102345.94;5053625;28;20039;-78
2024/02/04 07:43:34;;;;;;;16.90;4.60;;;;;;;8.06;100.00;102338.84;5053456;28;20459;-79
2024/02/04 07:45:59;;;;;;;16.50;4.10;;;;;;;8.10;100.00;102350.97;5053811;28;20044;-81
2024/02/04 07:48:24;;;;;;;18.00;5.25;;;;;;;8.11;100.00;102339.44;5053092;28;20120;-79
2024/02/04 07:50:50;;;;;;;19.98;5.00;;;;;;;8.16;100.00;102333.03;5053472;28;20040;-78
2024/02/04 07:53:15;;;;;;;13.43;4.22;;;;;;;8.15;100.00;102324.25;5052778;28;20402;-80
2024/02/04 07:55:40;;;;;;;15.32;3.88;;;;;;;8.18;100.00;102329.34;5053568;28;20459;-78
2024/02/04 07:58:06;;;;;;;12.45;3.30;;;;;;;8.21;100.00;102334.50;5053614;28;20037;-78
2024/02/04 08:00:31;;;;;;;9.38;3.55;;;;;;;8.24;100.00;102331.66;5052945;28;20398;-78
2024/02/04 08:02:56;;;;;;;13.15;3.65;;;;;;;8.25;100.00;102343.13;5053334;28;20102;-80
2024/02/04 08:05:22;;;;;;;12.75;3.63;;;;;;;8.23;100.00;102345.84;5052818;28;20059;-78
2024/02/04 08:07:47;;;;;;;13.57;4.07;;;;;;;8.25;100.00;102351.06;5052875;28;20067;-78
2024/02/04 08:10:12;;;;;;;18.75;3.33;;;;;;;8.26;100.00;102335.06;5053123;28;20058;-78
2024/02/04 08:12:38;;;;;;;13.43;3.30;;;;;;;8.27;100.00;102343.88;5052723;28;20434;-80
2024/02/04 08:15:04;;;;;;;14.90;2.97;;;;;;;8.29;100.00;102342.84;5052929;28;20029;-81
2024/02/04 08:17:30;;;;;;;14.70;3.72;;;;;;;8.27;100.00;102344.75;5051021;28;20036;-81
2024/02/04 08:19:57;;;;;;;11.13;2.90;;;;;;;8.30;100.00;102346.38;5052862;28;20036;-82
2024/02/04 08:22:22;;;;;;;12.63;3.33;;;;;;;8.33;100.00;102329.41;5052415;28;20037;-81
2024/02/04 08:24:47;;;;;;;10.05;2.80;;;;;;;8.32;100.00;102330.38;5052667;28;20029;-79
2024/02/04 08:27:15;;;;;;;13.95;2.50;;;;;;;8.35;100.00;102324.88;5052679;28;20044;-80
2024/02/04 08:29:41;;;;;;;14.73;3.38;;;;;;;8.37;100.00;102334.44;5052375;28;20162;-80
2024/02/04 08:32:07;;;;;;;11.00;2.78;;;;;;;8.37;100.00;102337.09;5052895;28;20479;-78
2024/02/04 08:34:32;;;;;;;12.23;2.60;;;;;;;8.41;100.00;102324.53;5052094;28;20029;-80
2024/02/04 08:36:57;;;;;;;7.85;2.20;;;;;;;8.45;100.00;102321.66;5052413;28;20037;-79
2024/02/04 08:39:23;;;;;;;12.07;2.97;;;;;;;8.50;100.00;102307.25;5051375;28;20102;-80
2024/02/04 08:41:48;;;;;;;10.68;2.65;;;;;;;8.52;100.00;102311.50;5053059;28;20102;-79
2024/02/04 08:44:14;;;;;;;5.53;2.00;;;;;;;8.54;100.00;102314.94;5052329;28;20126;-80
2024/02/04 08:46:39;;;;;;;4.70;1.88;;;;;;;8.56;100.00;102307.75;5050562;28;20454;-79
2024/02/04 08:49:04;;;;;;;13.25;3.30;;;;;;;8.59;100.00;102285.50;5047920;28;20068;-78
2024/02/04 08:51:30;;;;;;;6.90;2.40;;;;;;;8.63;100.00;102310.91;5049148;28;20044;-79
2024/02/04 08:53:55;;;;;;;8.75;2.47;;;;;;;8.64;100.00;102304.63;5049211;28;20064;-82
2024/02/04 08:56:20;;;;;;;9.73;2.55;;;;;;;8.67;100.00;102308.91;5049649;28;20125;-83
2024/02/04 08:58:46;;;;;;;5.72;1.70;;;;;;;8.70;100.00;102306.91;5049114;28;20032;-79
2024/02/04 09:01:11;;;;;;;8.10;2.30;;;;;;;8.73;100.00;102317.38;5048938;28;20036;-81
2024/02/04 09:03:37;;;;;;;12.05;1.90;;;;;;;8.73;100.00;102313.84;5048841;28;20055;-79
2024/02/04 09:06:02;;;;;;;11.88;2.28;;;;;;;8.73;100.00;102313.84;5049135;28;20514;-80
2024/02/04 09:08:27;;;;;;;7.97;1.75;;;;;;;8.77;100.00;102318.88;5048343;28;20052;-79
2024/02/04 09:10:53;;;;;;;6.30;1.67;;;;;;;8.76;100.00;102313.66;5049069;28;20049;-80
2024/02/04 09:13:18;;;;;;;12.50;2.67;;;;;;;8.76;100.00;102303.94;5048619;28;20476;-79
2024/02/04 09:15:43;;;;;;;5.30;2.10;;;;;;;8.77;100.00;102304.78;5048637;28;20124;-79
2024/02/04 09:18:09;;;;;;;5.60;1.83;;;;;;;8.79;100.00;102302.88;5049121;28;20123;-79
2024/02/04 09:20:34;;;;;;;5.93;1.50;;;;;;;8.78;100.00;102311.81;5048524;28;20498;-79
2024/02/04 09:22:59;;;;;;;10.32;1.95;;;;;;;8.78;100.00;102322.41;5048960;28;20037;-77
2024/02/04 09:25:25;;;;;;;5.75;1.60;;;;;;;8.77;100.00;102318.88;5048711;28;20174;-78
2024/02/04 09:27:51;;;;;;;8.15;2.35;;;;;;;8.78;100.00;102319.75;5048828;28;20124;-83
2024/02/04 09:30:16;;;;;;;6.30;2.05;;;;;;;8.81;100.00;102311.63;5048974;28;20053;-79
2024/02/04 09:32:42;;;;;;;8.25;2.03;;;;;;;8.85;100.00;102329.03;5048128;28;20029;-80
2024/02/04 09:35:09;;;;;;;4.68;1.67;;;;;;;8.87;100.00;102326.28;5048710;28;20317;-81
2024/02/04 09:37:34;;;;;;;3.20;1.63;;;;;;;8.89;100.00;102329.72;5048038;28;20120;-80
2024/02/04 09:40:00;;;;;;;8.05;1.65;;;;;;;8.84;100.00;102324.69;5048705;28;20092;-80
2024/02/04 09:42:27;;;;;;;4.88;1.77;;;;;;;8.78;100.00;102317.94;5047765;28;20106;-80
2024/02/04 09:44:53;;;;;;;10.48;2.70;;;;;;;8.65;100.00;102331.06;5048177;28;20033;-80
2024/02/04 09:47:20;;;;;;;6.85;2.08;;;;;;;8.50;100.00;102326.69;5048321;28;20037;-79
2024/02/04 09:49:46;;;;;;;8.90;2.17;;;;;;;8.39;100.00;102326.41;5047808;28;20477;-80
2024/02/04 09:52:12;;;;;;;9.95;3.20;;;;;;;8.28;100.00;102335.84;5048564;28;20029;-80
2024/02/04 09:54:47;;;;;;;14.18;3.20;;;;;;;8.19;100.00;102339.00;5047792;28;20403;-78
2024/02/04 09:57:13;;;;;;;10.55;2.80;;;;;;;8.12;100.00;102327.91;5048196;28;20036;-81
2024/02/04 09:59:39;;;;;;;11.13;2.63;;;;;;;8.04;100.00;102330.13;5047525;28;20041;-80
2024/02/04 10:02:05;;;;;;;11.35;2.80;;;;;;;7.99;100.00;102328.69;5047823;28;20041;-80
2024/02/04 10:04:31;;;;;;;13.05;3.30;;;;;;;7.95;100.00;102331.47;5048180;28;20082;-79
2024/02/04 10:06:56;;;;;;;8.95;2.80;;;;;;;7.94;100.00;102340.41;5047475;28;20114;-80
2024/02/04 10:09:22;;;;;;;17.60;3.72;;;;;;;7.91;100.00;102329.97;5048044;28;20118;-79
2024/02/04 10:11:47;;;;;;;20.98;3.30;;;;;;;7.91;100.00;102335.28;5047304;28;20069;-79
2024/02/04 10:14:13;;;;;;;16.45;3.17;;;;;;;7.92;100.00;102325.50;5047956;28;20048;-79
2024/02/04 10:16:40;;;;;;;15.23;2.60;;;;;;;7.93;100.00;102330.72;5047870;28;20048;-79
2024/02/04 10:19:05;;;;;;;12.50;2.92;;;;;;;7.94;100.00;102335.09;5047694;28;20037;-82
2024/02/04 10:21:31;;;;;;;23.67;3.05;;;;;;;7.98;100.00;102321.66;5047530;28;20344;-79
2024/02/04 10:23:56;;;;;;;15.05;2.40;;;;;;;8.02;100.00;102332.00;5042489;28;20167;-80
2024/02/04 10:26:22;;;;;;;13.05;2.80;;;;;;;8.07;100.00;102335.25;5038297;28;20455;-78
2024/02/04 10:28:48;;;;;;;8.50;1.85;;;;;;;8.12;100.00;102333.22;5049661;28;20040;-78
2024/02/04 10:31:14;;;;;;;16.20;2.35;;;;;;;8.19;100.00;102343.47;5049696;28;20029;-77
2024/02/04 10:33:40;;;;;;;9.18;2.85;;;;;;;8.21;100.00;102337.13;5049380;28;20039;-76
2024/02/04 10:36:06;;;;;;;13.43;2.38;;;;;;;8.25;100.00;102335.16;5049532;28;20025;-78
2024/02/04 10:38:34;;;;;;;18.65;2.55;;;;;;;8.30;100.00;102336.59;5027832;28;20033;-79
2024/02/04 10:41:01;;;;;;;17.17;2.60;;;;;;;8.32;100.00;102327.72;5026516;28;20359;-77
2024/02/04 10:43:32;;;;;;;17.05;2.45;;;;;;;8.38;100.00;102322.06;5026677;28;20410;-79
2024/02/04 10:46:05;;;;;;;14.73;2.22;;;;;;;8.41;100.00;102330.69;5026466;28;20033;-79
2024/02/04 10:48:41;;;;;;;11.70;2.65;;;;;;;8.46;100.00;102328.66;5026411;28;20553;-79
2024/02/04 10:51:18;;;;;;;7.85;2.20;;;;;;;8.53;100.00;102328.31;5027061;28;20033;-78
2024/02/04 10:53:45;;;;;;;7.47;1.80;;;;;;;8.57;100.00;102305.94;5026272;28;20124;-77
2024/02/04 10:56:30;;;;;;;17.77;2.63;;;;;;;8.62;100.00;102323.31;5026800;28;20038;-77
2024/02/04 10:58:58;;;;;;;11.20;2.10;;;;;;;8.67;100.00;102319.53;5026257;28;20124;-78
2024/02/04 11:01:24;;;;;;;11.07;2.45;;;;;;;8.72;100.00;102309.47;5026055;28;20066;-78
2024/02/04 11:03:51;;;;;;;21.50;2.92;;;;;;;8.73;100.00;102311.19;5025952;28;20033;-78
2024/02/04 11:06:18;;;;;;;14.82;2.47;;;;;;;8.72;100.00;102307.69;5026700;28;20106;-78
2024/02/04 11:08:43;;;;;;;16.20;3.15;;;;;;;8.75;100.00;102307.53;5039443;28;20114;-78
2024/02/04 11:11:09;;;;;;;11.35;2.17;;;;;;;8.76;100.00;102332.25;5045327;28;20068;-76